createdAt,value
2022-08-10T00:00:56.891Z,1.30
2022-08-10T00:03:26.760Z,1.48
2022-08-10T00:05:56.518Z,1.08
2022-08-10T00:08:27.783Z,1.50
2022-08-10T00:10:57.980Z,1.38
2022-08-10T00:13:27.247Z,1.20
2022-08-10T00:15:55.572Z,1.02
2022-08-10T00:18:31.562Z,1.35
2022-08-10T00:21:09.501Z,1.40
2022-08-10T00:23:36.727Z,1.20
2022-08-10T00:26:04.637Z,1.20
2022-08-10T00:28:32.136Z,1.20
2022-08-10T00:31:00.721Z,1.40
2022-08-10T00:33:27.920Z,1.42
2022-08-10T00:35:55.024Z,1.33
2022-08-10T00:38:23.251Z,1.30
2022-08-10T00:40:58.867Z,1.45
2022-08-10T00:43:27.164Z,1.27
2022-08-10T00:45:58.928Z,1.30
2022-08-10T00:48:28.127Z,1.35
2022-08-10T00:50:55.729Z,1.50
2022-08-10T00:53:30.565Z,1.60
2022-08-10T00:57:05.176Z,1.50
2022-08-10T00:58:52.624Z,1.50
2022-08-10T01:02:09.402Z,1.50
2022-08-10T01:04:58.531Z,1.50
2022-08-10T01:07:17.040Z,1.60
2022-08-10T01:09:55.788Z,1.40
2022-08-10T01:12:41.625Z,1.52
2022-08-10T01:15:08.965Z,1.63
2022-08-10T01:18:02.098Z,1.52
2022-08-10T01:20:38.346Z,1.52
2022-08-10T01:23:32.912Z,1.58
2022-08-10T01:26:31.593Z,1.55
2022-08-10T01:29:25.446Z,1.70
2022-08-10T01:31:54.474Z,1.90
2022-08-10T01:34:24.716Z,1.75
2022-08-10T01:36:58.715Z,2.00
2022-08-10T01:39:30.623Z,1.95
2022-08-10T01:42:01.249Z,1.90
2022-08-10T01:44:30.807Z,1.90
2022-08-10T01:47:22.177Z,2.00
2022-08-10T01:49:50.341Z,1.90
2022-08-10T01:52:19.380Z,2.25
2022-08-10T01:54:49.543Z,2.30
2022-08-10T01:57:20.555Z,2.55
2022-08-10T01:59:58.641Z,2.30
2022-08-10T02:02:31.228Z,2.10
2022-08-10T02:04:58.948Z,2.22
2022-08-10T02:07:27.747Z,2.25
2022-08-10T02:09:56.022Z,2.30
2022-08-10T02:12:25.051Z,2.55
2022-08-10T02:14:53.993Z,2.45
2022-08-10T02:17:57.900Z,2.80
2022-08-10T02:20:13.108Z,2.70
2022-08-10T02:22:41.141Z,2.67
2022-08-10T02:25:09.796Z,2.65
2022-08-10T02:27:57.731Z,2.83
2022-08-10T02:30:24.896Z,2.47
2022-08-10T02:32:54.010Z,2.95
2022-08-10T02:35:23.209Z,3.10
2022-08-10T02:37:55.686Z,3.05
2022-08-10T02:45:01.911Z,2.95
2022-08-10T02:45:15.193Z,2.80
2022-08-10T02:46:18.208Z,3.10
2022-08-10T02:51:19.623Z,2.95
2022-08-10T02:54:09.884Z,3.00
2022-08-10T02:56:47.880Z,3.45
2022-08-10T02:59:27.097Z,3.13
2022-08-10T03:02:09.620Z,3.10
2022-08-10T03:04:55.034Z,3.33
2022-08-10T03:07:43.196Z,3.10
2022-08-10T03:10:16.906Z,3.03
2022-08-10T03:12:45.854Z,2.90
2022-08-10T03:15:15.677Z,3.10
2022-08-10T03:17:57.856Z,3.05
2022-08-10T03:20:37.482Z,3.08
2022-08-10T03:23:11.850Z,3.17
2022-08-10T03:25:39.085Z,3.22
2022-08-10T03:28:06.921Z,3.08
2022-08-10T03:30:34.979Z,3.30
2022-08-10T03:33:05.121Z,2.80
2022-08-10T03:35:32.463Z,2.90
2022-08-10T03:38:00.456Z,3.10
2022-08-10T03:40:45.296Z,2.97
2022-08-10T03:43:18.371Z,3.10
2022-08-10T03:45:56.089Z,3.30
2022-08-10T03:48:33.286Z,2.80
2022-08-10T03:51:12.404Z,2.85
2022-08-10T03:54:04.804Z,2.90
2022-08-10T03:56:31.931Z,3.30
2022-08-10T03:59:00.073Z,2.80
2022-08-10T04:02:42.133Z,2.88
2022-08-10T04:04:19.204Z,3.08
2022-08-10T04:06:51.493Z,3.33
2022-08-10T04:09:22.221Z,3.25
2022-08-10T04:11:49.321Z,3.03
2022-08-10T04:14:38.161Z,3.03
2022-08-10T04:17:03.606Z,3.40
2022-08-10T04:19:33.852Z,3.53
2022-08-10T04:22:03.888Z,3.28
2022-08-10T04:24:41.888Z,3.45
2022-08-10T04:27:09.496Z,3.40
2022-08-10T04:29:36.866Z,3.83
2022-08-10T04:32:04.955Z,3.30
2022-08-10T04:34:32.837Z,3.17
2022-08-10T04:37:05.478Z,3.17
2022-08-10T04:39:42.565Z,3.63
2022-08-10T04:42:10.058Z,3.33
2022-08-10T04:44:37.155Z,3.28
2022-08-10T04:47:04.307Z,3.72
2022-08-10T04:49:56.119Z,3.28
2022-08-10T04:52:18.834Z,3.40
2022-08-10T04:54:45.974Z,3.63
2022-08-10T04:57:13.018Z,3.45
2022-08-10T04:59:40.279Z,3.22
2022-08-10T05:02:27.087Z,3.42
2022-08-10T05:04:59.813Z,3.63
2022-08-10T05:07:31.346Z,3.58
2022-08-10T05:10:08.328Z,3.45
2022-08-10T05:12:41.046Z,4.03
2022-08-10T05:15:12.351Z,4.00
2022-08-10T05:17:40.133Z,4.25
2022-08-10T05:20:08.413Z,3.58
2022-08-10T05:22:40.859Z,3.88
2022-08-10T05:25:09.976Z,4.00
2022-08-10T05:27:37.136Z,3.83
2022-08-10T05:30:05.579Z,3.88
2022-08-10T05:32:56.435Z,4.00
2022-08-10T05:35:21.138Z,3.97
2022-08-10T05:38:12.664Z,4.10
2022-08-10T05:40:37.651Z,3.92
2022-08-10T05:43:05.351Z,4.03
2022-08-10T05:45:32.494Z,4.13
2022-08-10T05:48:54.830Z,3.80
2022-08-10T05:50:46.665Z,3.92
2022-08-10T05:54:00.956Z,4.13
2022-08-10T05:56:01.503Z,4.70
2022-08-10T05:58:28.701Z,4.68
2022-08-10T06:00:57.161Z,4.00
2022-08-10T06:03:30.141Z,4.50
2022-08-10T06:06:02.221Z,4.50
2022-08-10T06:08:33.063Z,4.05
2022-08-10T06:12:27.102Z,4.40
2022-08-10T06:14:16.723Z,4.28
2022-08-10T06:16:50.299Z,4.43
2022-08-10T06:19:17.891Z,4.40
2022-08-10T06:21:55.327Z,4.60
2022-08-10T06:24:30.471Z,4.32
2022-08-10T06:26:58.063Z,4.70
2022-08-10T06:29:25.470Z,4.28
2022-08-10T06:32:01.266Z,4.18
2022-08-10T06:34:30.366Z,4.75
2022-08-10T06:36:58.660Z,4.40
2022-08-10T06:39:36.439Z,4.05
2022-08-10T06:42:16.766Z,4.47
2022-08-10T06:45:04.629Z,4.57
2022-08-10T06:47:34.837Z,4.53
2022-08-10T06:50:05.078Z,4.50
2022-08-10T06:52:37.165Z,4.75
2022-08-10T06:57:38.149Z,4.95
2022-08-10T07:00:10.955Z,4.93
2022-08-10T07:02:45.092Z,5.45
2022-08-10T07:05:15.868Z,5.03
2022-08-10T07:07:47.256Z,4.90
2022-08-10T07:10:18.991Z,4.45
2022-08-10T07:12:47.473Z,4.30
2022-08-10T07:15:25.571Z,4.53
2022-08-10T07:18:13.030Z,5.10
2022-08-10T07:20:40.723Z,4.80
2022-08-10T07:23:57.305Z,5.22
2022-08-10T07:25:55.491Z,4.82
2022-08-10T07:28:27.253Z,5.05
2022-08-10T07:30:54.613Z,4.60
2022-08-10T07:33:22.840Z,5.20
2022-08-10T07:35:51.038Z,5.55
2022-08-10T07:38:25.255Z,4.95
2022-08-10T07:40:53.045Z,4.80
2022-08-10T07:43:24.832Z,5.18
2022-08-10T07:45:52.190Z,4.97
2022-08-10T07:48:26.238Z,4.65
2022-08-10T07:50:57.843Z,4.45
2022-08-10T07:53:27.006Z,3.47
2022-08-10T07:56:07.260Z,5.07
2022-08-10T07:58:47.337Z,4.20
2022-08-10T08:01:21.582Z,3.50
2022-08-10T08:04:06.072Z,4.50
2022-08-10T08:06:46.334Z,3.72
2022-08-10T08:09:13.492Z,3.63
2022-08-10T08:11:44.251Z,4.38
2022-08-10T08:14:11.868Z,3.80
2022-08-10T08:16:40.840Z,4.00
2022-08-10T08:24:06.835Z,3.00
2022-08-10T08:24:44.770Z,3.75
2022-08-10T08:27:15.249Z,4.03
2022-08-10T08:29:46.367Z,4.28
2022-08-10T08:32:16.825Z,4.50
2022-08-10T08:34:44.991Z,4.07
2022-08-10T08:38:30.520Z,4.43
2022-08-10T08:40:09.964Z,3.95
2022-08-10T08:42:46.390Z,4.28
2022-08-10T08:45:13.444Z,3.90
2022-08-10T08:48:04.237Z,3.50
2022-08-10T08:50:56.669Z,3.90
2022-08-10T08:54:02.267Z,3.40
2022-08-10T08:56:31.820Z,3.58
2022-08-10T08:58:59.142Z,3.20
2022-08-10T09:01:38.320Z,3.28
2022-08-10T09:04:26.373Z,3.08
2022-08-10T09:07:59.672Z,2.72
2022-08-10T09:10:02.005Z,3.00
2022-08-10T09:12:48.609Z,3.28
2022-08-10T09:15:41.143Z,3.47
2022-08-10T09:18:18.631Z,3.30
2022-08-10T09:20:50.614Z,2.80
2022-08-10T09:24:04.919Z,3.70
2022-08-10T09:26:23.853Z,2.92
2022-08-10T09:29:11.853Z,2.33
2022-08-10T09:32:57.368Z,3.50
2022-08-10T09:36:23.358Z,2.95
2022-08-10T09:38:01.961Z,3.00
2022-08-10T09:40:59.453Z,2.67
2022-08-10T09:43:26.899Z,2.90
2022-08-10T09:46:01.679Z,2.90
2022-08-10T09:48:47.372Z,2.85
2022-08-10T09:54:15.016Z,2.95
2022-08-10T09:57:41.323Z,2.72
2022-08-10T10:00:01.991Z,2.97
2022-08-10T10:02:29.519Z,2.72
2022-08-10T10:05:08.965Z,3.10
2022-08-10T10:07:38.161Z,3.30
2022-08-10T10:10:11.159Z,3.10
2022-08-10T10:12:45.704Z,2.58
2022-08-10T10:15:24.021Z,2.47
2022-08-10T10:18:05.121Z,2.53
2022-08-10T10:20:39.887Z,2.88
2022-08-10T10:23:18.990Z,2.50
2022-08-10T10:25:51.745Z,2.63
2022-08-10T10:29:11.418Z,2.63
2022-08-10T10:31:31.092Z,2.58
2022-08-10T10:34:24.944Z,2.90
2022-08-10T10:36:52.620Z,2.70
2022-08-10T10:39:24.024Z,2.70
2022-08-10T10:42:18.475Z,2.60
2022-08-10T10:45:14.683Z,2.35
2022-08-10T10:47:52.763Z,2.75
2022-08-10T10:50:19.827Z,2.50
2022-08-10T10:53:09.435Z,2.60
2022-08-10T10:56:13.145Z,2.65
2022-08-10T10:58:35.568Z,2.77
2022-08-10T11:01:11.800Z,2.60
2022-08-10T11:03:55.645Z,2.60
2022-08-10T11:06:39.502Z,3.00
2022-08-10T11:09:12.509Z,2.72
2022-08-10T11:12:03.059Z,2.83
2022-08-10T11:14:38.473Z,2.70
2022-08-10T11:17:18.021Z,2.47
2022-08-10T11:20:04.304Z,2.47
2022-08-10T11:22:41.473Z,2.70
2022-08-10T11:25:29.798Z,2.70
2022-08-10T11:28:15.519Z,2.50
2022-08-10T11:30:42.615Z,2.55
2022-08-10T11:33:32.443Z,2.72
2022-08-10T11:36:17.358Z,2.75
2022-08-10T11:39:14.062Z,2.70
2022-08-10T11:42:10.149Z,2.97
2022-08-10T11:44:35.465Z,2.95
2022-08-10T11:47:11.653Z,2.35
2022-08-10T11:49:47.713Z,2.80
2022-08-10T11:52:17.417Z,2.80
2022-08-10T11:54:50.968Z,3.00
2022-08-10T11:57:24.419Z,2.30
2022-08-10T12:00:11.763Z,2.72
2022-08-10T20:21:49.275Z,2.00
2022-08-10T20:24:35.257Z,1.88
2022-08-10T20:27:56.646Z,1.80
2022-08-10T20:30:03.716Z,2.00
2022-08-10T20:32:44.265Z,1.80
2022-08-10T20:35:37.967Z,1.65
2022-08-10T20:38:16.128Z,1.73
2022-08-10T20:41:03.451Z,2.03
2022-08-10T20:43:57.092Z,1.80
2022-08-10T20:46:35.141Z,1.80
2022-08-10T20:49:12.200Z,1.65
2022-08-10T20:51:58.528Z,1.70
2022-08-10T20:54:52.279Z,1.63
2022-08-10T20:57:55.567Z,1.90
2022-08-10T21:00:23.455Z,1.77
2022-08-10T21:03:15.703Z,1.88
2022-08-10T21:06:27.336Z,1.52
2022-08-10T21:09:25.193Z,1.67
2022-08-10T21:12:14.242Z,2.10
2022-08-10T21:15:02.291Z,1.90
2022-08-10T21:17:34.878Z,1.80
2022-08-10T21:20:06.713Z,2.00
2022-08-10T21:22:48.943Z,1.70
2022-08-10T21:25:16.285Z,2.15
2022-08-10T21:27:49.922Z,1.90
2022-08-10T21:30:29.585Z,1.80
2022-08-10T21:33:14.758Z,1.67
2022-08-10T21:36:00.087Z,1.80
2022-08-10T21:38:45.626Z,1.90
2022-08-10T21:41:57.294Z,2.08
2022-08-10T21:44:53.453Z,2.03
2022-08-10T21:48:16.756Z,1.90
2022-08-10T21:50:58.671Z,1.90
2022-08-10T21:53:52.770Z,1.73
2022-08-10T21:56:50.995Z,1.90
2022-08-10T21:59:48.242Z,1.77
2022-08-10T22:05:49.787Z,2.00
2022-08-10T22:08:40.801Z,1.80
2022-08-10T22:11:37.674Z,1.98
2022-08-10T22:14:37.676Z,1.88
2022-08-10T22:18:03.660Z,1.63
2022-08-10T22:20:49.555Z,1.80
2022-08-10T22:23:44.416Z,1.80
2022-08-10T22:26:56.610Z,1.52
2022-08-10T22:29:57.045Z,1.67
2022-08-10T22:33:03.715Z,1.80
2022-08-10T22:35:58.596Z,1.80
2022-08-10T22:39:00.821Z,1.63
2022-08-10T22:41:57.428Z,2.03
2022-08-10T22:45:01.111Z,1.80
2022-08-10T22:47:49.653Z,1.63
2022-08-10T22:50:21.390Z,2.20
2022-08-10T22:53:02.003Z,1.60
2022-08-10T22:55:52.565Z,1.67
2022-08-10T22:58:38.584Z,1.75
2022-08-10T23:01:39.408Z,1.75
2022-08-10T23:04:26.837Z,1.88
2022-08-10T23:07:08.711Z,1.85
2022-08-10T23:09:42.375Z,2.00
2022-08-10T23:12:11.412Z,1.70
2022-08-10T23:14:40.476Z,1.58
2022-08-10T23:18:00.616Z,1.65
2022-08-10T23:20:29.825Z,2.00
2022-08-10T23:23:07.562Z,1.85
2022-08-10T23:25:56.210Z,1.75
2022-08-10T23:28:38.769Z,1.98
2022-08-10T23:31:11.610Z,1.90
2022-08-10T23:33:41.354Z,1.98
2022-08-10T23:36:33.595Z,1.83
2022-08-10T23:39:27.005Z,1.88
2022-08-10T23:41:52.842Z,1.80
2022-08-10T23:44:21.197Z,1.85
2022-08-10T23:46:48.771Z,1.95
2022-08-10T23:49:16.677Z,1.80
2022-08-10T23:51:55.191Z,1.90
2022-08-10T23:54:30.639Z,1.70
2022-08-10T23:57:01.390Z,2.00
2022-08-10T23:59:31.806Z,2.20
